createdAt,value
2017-07-23T00:00:37.310Z,16.80
2017-07-23T00:03:04.852Z,16.80
2017-07-23T00:05:32.392Z,16.80
2017-07-23T00:08:00.219Z,16.80
2017-07-23T00:10:27.771Z,16.80
2017-07-23T00:12:55.309Z,16.80
2017-07-23T00:15:23.643Z,16.80
2017-07-23T00:17:51.169Z,16.80
2017-07-23T00:20:18.726Z,16.90
2017-07-23T00:22:46.264Z,16.80
2017-07-23T00:25:13.799Z,16.80
2017-07-23T00:27:41.340Z,16.80
2017-07-23T00:30:08.859Z,16.80
2017-07-23T00:32:36.417Z,16.80
2017-07-23T00:35:03.964Z,16.80
2017-07-23T00:37:31.516Z,16.70
2017-07-23T00:39:59.806Z,16.80
2017-07-23T00:42:27.347Z,16.80
2017-07-23T00:44:55.269Z,16.80
2017-07-23T00:47:22.805Z,16.80
2017-07-23T00:49:50.352Z,16.80
2017-07-23T00:52:17.890Z,16.80
2017-07-23T00:54:45.419Z,16.80
2017-07-23T00:57:13.407Z,16.70
2017-07-23T00:59:40.946Z,16.70
2017-07-23T01:02:08.461Z,16.70
2017-07-23T01:04:36.051Z,16.60
2017-07-23T01:07:03.583Z,16.50
2017-07-23T01:09:31.412Z,16.40
2017-07-23T01:11:58.943Z,16.40
2017-07-23T01:14:26.463Z,16.40
2017-07-23T01:16:54.001Z,16.40
2017-07-23T01:19:21.526Z,16.30
2017-07-23T01:21:49.385Z,16.20
2017-07-23T01:24:16.912Z,16.10
2017-07-23T01:26:44.454Z,16.20
2017-07-23T01:29:11.982Z,16.20
2017-07-23T01:31:39.502Z,16.10
2017-07-23T01:34:07.526Z,16.10
2017-07-23T01:36:35.026Z,16.10
2017-07-23T01:39:02.544Z,16.00
2017-07-23T01:41:30.079Z,16.00
2017-07-23T01:43:57.592Z,16.00
2017-07-23T01:46:25.460Z,15.90
2017-07-23T01:48:52.998Z,15.90
2017-07-23T01:51:20.527Z,15.90
2017-07-23T01:53:48.081Z,15.90
2017-07-23T01:56:15.616Z,15.90
2017-07-23T01:58:43.468Z,15.90
2017-07-23T02:01:11.003Z,16.00
2017-07-23T02:03:38.544Z,16.00
2017-07-23T02:06:06.076Z,16.00
2017-07-23T02:08:33.610Z,16.00
2017-07-23T02:11:01.171Z,15.90
2017-07-23T02:13:28.705Z,15.90
2017-07-23T02:15:56.264Z,15.90
2017-07-23T02:18:23.807Z,15.90
2017-07-23T02:20:52.117Z,15.80
2017-07-23T02:23:19.675Z,15.80
2017-07-23T02:25:47.212Z,15.70
2017-07-23T02:28:14.763Z,15.70
2017-07-23T02:30:42.296Z,15.70
2017-07-23T02:33:09.830Z,15.60
2017-07-23T02:35:37.806Z,15.60
2017-07-23T02:38:05.341Z,15.60
2017-07-23T02:40:32.889Z,15.60
2017-07-23T02:43:00.424Z,15.70
2017-07-23T02:45:27.944Z,15.70
2017-07-23T02:47:55.907Z,15.70
2017-07-23T02:50:23.442Z,15.70
2017-07-23T02:52:50.958Z,15.70
2017-07-23T02:55:18.483Z,15.80
2017-07-23T02:57:46.038Z,15.70
2017-07-23T03:00:14.013Z,15.70
2017-07-23T03:02:41.545Z,15.70
2017-07-23T03:05:09.067Z,15.70
2017-07-23T03:07:36.605Z,15.60
2017-07-23T03:10:04.137Z,15.60
2017-07-23T03:12:31.669Z,15.60
2017-07-23T03:14:59.194Z,15.50
2017-07-23T03:17:26.726Z,15.50
2017-07-23T03:19:54.280Z,15.40
2017-07-23T03:22:21.792Z,15.40
2017-07-23T03:24:50.086Z,15.30
2017-07-23T03:27:17.630Z,15.40
2017-07-23T03:29:45.143Z,15.30
2017-07-23T03:32:12.687Z,15.30
2017-07-23T03:34:40.209Z,15.40
2017-07-23T03:37:07.754Z,15.40
2017-07-23T03:39:36.047Z,15.40
2017-07-23T03:42:03.586Z,15.30
2017-07-23T03:44:31.132Z,15.30
2017-07-23T03:46:58.652Z,15.30
2017-07-23T03:49:26.191Z,15.30
2017-07-23T03:51:53.716Z,15.30
2017-07-23T03:54:21.248Z,15.30
2017-07-23T03:56:48.776Z,15.30
2017-07-23T03:59:16.311Z,15.20
2017-07-23T04:01:44.601Z,15.10
2017-07-23T04:04:12.126Z,15.10
2017-07-23T04:06:39.642Z,15.10
2017-07-23T04:09:07.190Z,15.10
2017-07-23T04:11:34.705Z,15.00
2017-07-23T04:14:02.231Z,15.00
2017-07-23T04:16:29.785Z,14.90
2017-07-23T04:18:57.332Z,14.90
2017-07-23T04:21:24.870Z,14.90
2017-07-23T04:23:52.396Z,14.90
2017-07-23T04:26:19.918Z,14.90
2017-07-23T04:28:47.786Z,15.00
2017-07-23T04:31:15.320Z,15.00
2017-07-23T04:33:42.859Z,15.10
2017-07-23T04:36:10.410Z,15.20
2017-07-23T04:38:37.961Z,15.20
2017-07-23T04:41:05.896Z,15.30
2017-07-23T04:43:33.436Z,15.40
2017-07-23T04:46:00.940Z,15.60
2017-07-23T04:48:28.483Z,15.60
2017-07-23T04:50:55.996Z,15.60
2017-07-23T04:53:23.526Z,15.50
2017-07-23T04:55:51.054Z,15.40
2017-07-23T04:58:18.674Z,15.40
2017-07-23T05:00:46.213Z,15.40
2017-07-23T05:03:14.500Z,15.50
2017-07-23T05:05:42.499Z,15.40
2017-07-23T05:08:10.021Z,15.50
2017-07-23T05:10:37.537Z,15.60
2017-07-23T05:13:05.082Z,15.50
2017-07-23T05:15:32.595Z,15.60
2017-07-23T05:18:00.904Z,15.60
2017-07-23T05:20:28.452Z,15.60
2017-07-23T05:22:55.980Z,15.70
2017-07-23T05:25:24.305Z,16.10
2017-07-23T05:27:51.831Z,16.00
2017-07-23T05:30:19.372Z,16.30
2017-07-23T05:32:46.937Z,16.40
2017-07-23T05:35:14.464Z,16.40
2017-07-23T05:37:42.312Z,16.40
2017-07-23T05:40:09.845Z,16.50
2017-07-23T05:42:37.366Z,16.50
2017-07-23T05:45:04.917Z,16.50
2017-07-23T05:47:32.453Z,16.40
2017-07-23T05:50:00.047Z,16.40
2017-07-23T05:52:27.791Z,16.30
2017-07-23T05:54:55.307Z,16.20
2017-07-23T05:57:22.861Z,16.10
2017-07-23T05:59:50.406Z,16.10
2017-07-23T06:02:18.207Z,16.00
2017-07-23T06:04:45.738Z,16.00
2017-07-23T06:07:13.247Z,16.00
2017-07-23T06:09:41.061Z,16.00
2017-07-23T06:12:08.599Z,16.10
2017-07-23T06:14:36.889Z,16.20
2017-07-23T06:17:05.193Z,16.30
2017-07-23T06:19:32.731Z,16.20
2017-07-23T06:22:00.335Z,16.30
2017-07-23T06:24:27.851Z,16.30
2017-07-23T06:26:55.382Z,16.30
2017-07-23T06:29:22.924Z,16.30
2017-07-23T06:31:50.459Z,16.30
2017-07-23T06:34:17.984Z,16.30
2017-07-23T06:36:46.287Z,16.40
2017-07-23T06:39:13.829Z,16.40
2017-07-23T06:41:41.373Z,16.40
2017-07-23T06:44:09.673Z,16.50
2017-07-23T06:46:37.198Z,16.50
2017-07-23T06:49:04.737Z,16.70
2017-07-23T06:51:32.259Z,17.00
2017-07-23T06:53:59.794Z,17.30
2017-07-23T06:56:27.319Z,17.20
2017-07-23T06:58:54.841Z,17.50
2017-07-23T07:01:22.814Z,17.80
2017-07-23T07:03:51.337Z,17.90
2017-07-23T07:06:19.660Z,17.80
2017-07-23T07:08:49.467Z,17.80
2017-07-23T07:11:16.990Z,17.60
2017-07-23T07:13:44.530Z,17.50
2017-07-23T07:16:12.476Z,17.50
2017-07-23T07:18:40.023Z,17.30
2017-07-23T07:21:08.066Z,17.20
2017-07-23T07:23:35.975Z,17.20
2017-07-23T07:26:03.517Z,17.20
2017-07-23T07:28:31.046Z,17.10
2017-07-23T07:30:59.355Z,17.00
2017-07-23T07:33:26.903Z,17.00
2017-07-23T07:35:54.719Z,17.10
2017-07-23T07:38:22.235Z,17.00
2017-07-23T07:40:49.786Z,17.00
2017-07-23T07:43:17.359Z,16.90
2017-07-23T07:45:44.872Z,16.90
2017-07-23T07:48:13.492Z,17.00
2017-07-23T07:50:41.021Z,17.00
2017-07-23T07:53:09.324Z,17.40
2017-07-23T07:55:36.890Z,17.40
2017-07-23T07:58:04.460Z,18.10
2017-07-23T08:00:32.414Z,18.70
2017-07-23T08:02:59.956Z,18.80
2017-07-23T08:05:27.494Z,18.70
2017-07-23T08:07:55.669Z,18.70
2017-07-23T08:10:23.252Z,19.10
2017-07-23T08:12:51.091Z,19.30
2017-07-23T08:15:18.625Z,19.40
2017-07-23T08:17:46.163Z,19.50
2017-07-23T08:20:13.711Z,19.00
2017-07-23T08:22:41.249Z,18.70
2017-07-23T08:25:08.804Z,18.90
2017-07-23T08:27:36.374Z,19.10
2017-07-23T08:30:04.251Z,19.10
2017-07-23T08:32:31.811Z,18.90
2017-07-23T08:34:59.355Z,19.10
2017-07-23T08:37:26.939Z,19.30
2017-07-23T08:39:54.490Z,19.40
2017-07-23T08:42:22.053Z,19.40
2017-07-23T08:44:49.793Z,19.40
2017-07-23T08:47:17.440Z,19.50
2017-07-23T08:49:45.769Z,18.80
2017-07-23T08:52:13.310Z,18.80
2017-07-23T08:54:40.845Z,18.90
2017-07-23T08:57:09.154Z,19.30
2017-07-23T08:59:36.693Z,19.30
2017-07-23T09:02:04.508Z,19.40
2017-07-23T09:04:32.079Z,19.30
2017-07-23T09:06:59.620Z,19.20
2017-07-23T09:09:27.200Z,19.20
2017-07-23T09:11:54.760Z,19.40
2017-07-23T09:14:22.328Z,19.70
2017-07-23T09:16:50.669Z,20.10
2017-07-23T09:19:18.198Z,20.10
2017-07-23T09:21:45.790Z,20.30
2017-07-23T09:24:13.351Z,20.50
2017-07-23T09:26:41.029Z,20.50
2017-07-23T09:29:08.773Z,20.20
2017-07-23T09:31:36.361Z,20.20
2017-07-23T09:34:04.243Z,20.20
2017-07-23T09:36:31.866Z,20.30
2017-07-23T09:38:59.408Z,18.20
2017-07-23T09:41:27.067Z,20.00
2017-07-23T09:43:54.638Z,19.90
2017-07-23T09:46:22.205Z,19.80
2017-07-23T09:48:49.935Z,19.80
2017-07-23T09:51:17.790Z,19.60
2017-07-23T09:53:45.648Z,19.80
2017-07-23T09:56:13.274Z,19.50
2017-07-23T09:58:41.105Z,19.30
2017-07-23T10:01:09.332Z,19.00
2017-07-23T10:03:37.590Z,18.70
2017-07-23T10:06:05.205Z,18.70
2017-07-23T10:08:32.729Z,18.60
2017-07-23T10:11:01.033Z,18.60
2017-07-23T10:13:28.606Z,18.60
2017-07-23T10:15:56.129Z,18.80
2017-07-23T10:18:24.421Z,18.80
2017-07-23T10:20:51.946Z,18.80
2017-07-23T10:23:19.482Z,18.80
2017-07-23T10:25:47.021Z,18.80
2017-07-23T10:28:14.547Z,18.80
2017-07-23T10:30:42.079Z,18.80
2017-07-23T10:33:09.599Z,19.00
2017-07-23T10:35:37.131Z,18.90
2017-07-23T10:38:04.656Z,19.00
2017-07-23T10:40:32.178Z,19.30
2017-07-23T10:42:59.703Z,19.50
2017-07-23T10:45:27.239Z,19.70
2017-07-23T10:47:55.078Z,19.90
2017-07-23T10:50:22.587Z,20.10
2017-07-23T10:52:50.120Z,20.10
2017-07-23T10:55:17.954Z,20.20
2017-07-23T10:57:45.484Z,20.20
2017-07-23T11:00:13.010Z,20.30
2017-07-23T11:02:41.311Z,20.30
2017-07-23T11:05:08.834Z,20.30
2017-07-23T11:07:36.397Z,20.10
2017-07-23T11:10:04.316Z,20.00
2017-07-23T11:12:31.828Z,20.30
2017-07-23T11:14:59.762Z,20.50
2017-07-23T11:17:27.287Z,20.70
2017-07-23T11:19:54.816Z,20.80
2017-07-23T11:22:22.369Z,20.70
2017-07-23T11:24:49.886Z,20.80
2017-07-23T11:27:17.464Z,20.90
2017-07-23T11:29:45.306Z,21.10
2017-07-23T11:32:12.845Z,21.20
2017-07-23T11:34:40.729Z,20.90
2017-07-23T11:37:08.234Z,20.50
2017-07-23T11:39:35.748Z,20.20
2017-07-23T11:42:03.621Z,20.00
2017-07-23T11:44:31.180Z,19.90
2017-07-23T11:46:58.736Z,19.70
2017-07-23T11:49:26.291Z,19.50
2017-07-23T11:51:53.828Z,19.40
2017-07-23T11:54:21.658Z,19.20
2017-07-23T11:56:49.413Z,19.10
2017-07-23T11:59:17.038Z,19.50
2017-07-23T12:01:44.713Z,18.90
2017-07-23T12:04:12.230Z,19.00
2017-07-23T12:06:40.085Z,19.00
2017-07-23T12:09:07.710Z,19.00
2017-07-23T12:11:35.346Z,19.10
2017-07-23T12:14:02.930Z,19.20
2017-07-23T12:16:30.482Z,19.40
2017-07-23T12:18:58.327Z,19.50
2017-07-23T12:21:25.932Z,19.60
2017-07-23T12:23:53.469Z,19.60
2017-07-23T12:26:21.072Z,19.50
2017-07-23T12:28:48.645Z,19.50
2017-07-23T12:31:16.506Z,19.70
2017-07-23T12:33:44.111Z,19.80
2017-07-23T12:36:11.719Z,19.60
2017-07-23T12:38:39.302Z,19.60
2017-07-23T12:41:06.876Z,19.60
2017-07-23T12:43:34.681Z,19.40
2017-07-23T12:46:02.210Z,19.30
2017-07-23T12:48:29.812Z,19.40
2017-07-23T12:50:57.534Z,19.40
2017-07-23T12:53:25.077Z,19.50
2017-07-23T12:55:52.895Z,19.30
2017-07-23T12:58:20.465Z,19.40
2017-07-23T13:00:48.062Z,19.40
2017-07-23T13:03:15.981Z,19.50
2017-07-23T13:05:43.499Z,19.50
2017-07-23T13:08:11.122Z,19.40
2017-07-23T13:10:38.791Z,19.30
2017-07-23T13:13:06.368Z,19.20
2017-07-23T13:15:34.176Z,19.20
2017-07-23T13:18:01.793Z,19.10
2017-07-23T13:20:29.412Z,19.00
2017-07-23T13:22:57.091Z,18.90
2017-07-23T13:25:25.422Z,18.80
2017-07-23T13:27:53.282Z,18.90
2017-07-23T13:30:20.906Z,18.80
2017-07-23T13:32:48.543Z,18.90
2017-07-23T13:35:16.193Z,21.10
2017-07-23T13:37:43.772Z,18.70
2017-07-23T13:40:11.622Z,18.60
2017-07-23T13:42:40.058Z,18.50
2017-07-23T13:45:08.480Z,18.50
2017-07-23T13:47:36.021Z,18.40
2017-07-23T13:50:03.584Z,18.30
2017-07-23T13:52:31.275Z,18.40
2017-07-23T13:54:58.811Z,18.50
2017-07-23T13:57:26.372Z,18.50
2017-07-23T13:59:53.959Z,18.60
2017-07-23T14:02:21.554Z,18.70
2017-07-23T14:04:49.411Z,18.90
2017-07-23T14:07:16.955Z,18.90
2017-07-23T14:09:44.471Z,19.00
2017-07-23T14:12:12.083Z,18.90
2017-07-23T14:14:39.649Z,19.10
2017-07-23T14:17:07.437Z,18.90
2017-07-23T14:19:34.963Z,19.10
2017-07-23T14:22:02.523Z,19.10
2017-07-23T14:24:30.262Z,19.20
2017-07-23T14:26:57.827Z,19.20
2017-07-23T14:29:25.778Z,19.30
2017-07-23T14:31:53.307Z,19.50
2017-07-23T14:34:20.841Z,19.70
2017-07-23T14:36:48.411Z,19.90
2017-07-23T14:39:16.059Z,20.00
2017-07-23T14:41:43.997Z,20.00
2017-07-23T14:44:11.607Z,19.90
2017-07-23T14:46:39.210Z,19.70
2017-07-23T14:49:06.746Z,19.70
2017-07-23T14:51:34.300Z,19.60
2017-07-23T14:54:02.200Z,19.70
2017-07-23T14:56:29.756Z,19.80
2017-07-23T14:58:57.283Z,19.80
2017-07-23T15:01:24.815Z,19.90
2017-07-23T15:03:52.343Z,19.90
2017-07-23T15:06:20.187Z,19.90
2017-07-23T15:08:47.735Z,19.90
2017-07-23T15:11:15.299Z,19.90
2017-07-23T15:13:42.826Z,19.70
2017-07-23T15:16:10.356Z,19.70
2017-07-23T15:18:38.712Z,19.60
2017-07-23T15:21:06.325Z,19.60
2017-07-23T15:23:33.921Z,19.50
2017-07-23T15:26:01.492Z,19.50
2017-07-23T15:28:29.293Z,19.50
2017-07-23T15:30:56.881Z,19.50
2017-07-23T15:33:24.441Z,19.50
2017-07-23T15:35:52.298Z,19.50
2017-07-23T15:38:19.832Z,19.60
2017-07-23T15:40:47.418Z,19.70
2017-07-23T15:43:15.025Z,19.80
2017-07-23T15:45:42.638Z,19.90
2017-07-23T15:48:10.599Z,19.90
2017-07-23T15:50:38.153Z,20.00
2017-07-23T15:53:05.733Z,20.50
2017-07-23T15:55:33.291Z,21.50
2017-07-23T15:58:00.966Z,22.30
2017-07-23T16:00:28.954Z,22.20
2017-07-23T16:02:56.513Z,21.60
2017-07-23T16:05:24.213Z,21.30
2017-07-23T16:07:52.124Z,20.80
2017-07-23T16:10:20.441Z,20.80
2017-07-23T16:12:48.080Z,21.00
2017-07-23T16:15:16.301Z,21.60
2017-07-23T16:17:43.844Z,21.40
2017-07-23T16:20:11.684Z,21.00
2017-07-23T16:22:39.210Z,20.70
2017-07-23T16:25:06.737Z,20.50
2017-07-23T16:27:35.330Z,20.20
2017-07-23T16:30:02.872Z,20.10
2017-07-23T16:32:31.425Z,20.00
2017-07-23T16:34:58.980Z,20.00
2017-07-23T16:37:26.511Z,20.00
2017-07-23T16:39:54.070Z,20.10
2017-07-23T16:42:21.591Z,20.20
2017-07-23T16:44:49.894Z,20.80
2017-07-23T16:47:17.433Z,20.70
2017-07-23T16:49:44.985Z,21.10
2017-07-23T16:52:14.246Z,20.50
2017-07-23T16:54:41.774Z,20.50
2017-07-23T16:57:09.317Z,20.10
2017-07-23T16:59:36.860Z,19.80
2017-07-23T17:02:05.160Z,19.70
2017-07-23T17:04:33.179Z,19.70
2017-07-23T17:07:00.723Z,19.60
2017-07-23T17:09:28.228Z,19.50
2017-07-23T17:11:55.774Z,19.40
2017-07-23T17:14:25.543Z,19.30
2017-07-23T17:16:53.326Z,19.40
2017-07-23T17:19:21.791Z,19.50
2017-07-23T17:21:49.989Z,19.50
2017-07-23T17:24:17.516Z,19.50
2017-07-23T17:26:45.029Z,19.50
2017-07-23T17:29:12.990Z,19.80
2017-07-23T17:31:40.545Z,20.00
2017-07-23T17:34:08.082Z,19.90
2017-07-23T17:36:35.622Z,19.90
2017-07-23T17:39:03.177Z,19.90
2017-07-23T17:41:31.157Z,19.90
2017-07-23T17:43:58.695Z,20.10
2017-07-23T17:46:26.520Z,19.90
2017-07-23T17:48:54.059Z,19.90
2017-07-23T17:51:21.638Z,19.80
2017-07-23T17:53:50.059Z,19.70
2017-07-23T17:56:17.792Z,19.60
2017-07-23T17:58:45.445Z,19.50
2017-07-23T18:01:13.003Z,19.40
2017-07-23T18:03:40.599Z,22.20
2017-07-23T18:06:09.280Z,19.40
2017-07-23T18:08:37.008Z,19.40
2017-07-23T18:11:04.624Z,19.50
2017-07-23T18:13:32.482Z,19.50
2017-07-23T18:16:01.338Z,19.40
2017-07-23T18:18:29.336Z,19.20
2017-07-23T18:20:57.343Z,19.30
2017-07-23T18:23:24.883Z,19.10
2017-07-23T18:25:53.094Z,19.00
2017-07-23T18:28:21.825Z,18.90
2017-07-23T18:30:49.763Z,18.80
2017-07-23T18:33:20.659Z,18.70
2017-07-23T18:35:49.164Z,18.70
2017-07-23T18:38:16.719Z,18.60
2017-07-23T18:40:44.297Z,18.60
2017-07-23T18:43:11.842Z,18.50
2017-07-23T18:45:39.421Z,18.50
2017-07-23T18:48:06.970Z,18.50
2017-07-23T18:50:34.852Z,18.40
2017-07-23T18:53:03.494Z,18.40
2017-07-23T18:55:31.044Z,18.30
2017-07-23T18:57:58.595Z,18.30
2017-07-23T19:00:26.149Z,18.20
2017-07-23T19:02:53.699Z,18.20
2017-07-23T19:05:22.841Z,18.20
2017-07-23T19:07:50.661Z,18.10
2017-07-23T19:10:23.287Z,18.10
2017-07-23T19:12:50.841Z,18.10
2017-07-23T19:15:18.393Z,18.00
2017-07-23T19:17:46.375Z,18.00
2017-07-23T19:20:13.894Z,17.90
2017-07-23T19:22:41.485Z,17.80
2017-07-23T19:25:09.035Z,17.80
2017-07-23T19:27:45.498Z,17.80
2017-07-23T19:30:13.445Z,17.80
2017-07-23T19:32:41.028Z,17.80
2017-07-23T19:35:09.184Z,17.70
2017-07-23T19:37:36.815Z,17.60
2017-07-23T19:40:04.360Z,17.50
2017-07-23T19:42:32.701Z,17.40
2017-07-23T19:45:00.264Z,17.40
2017-07-23T19:47:27.828Z,17.40
2017-07-23T19:49:55.421Z,17.30
2017-07-23T19:52:22.978Z,17.40
2017-07-23T19:54:50.938Z,17.20
2017-07-23T19:57:18.522Z,17.20
2017-07-23T19:59:46.054Z,17.20
2017-07-23T20:02:13.627Z,17.10
2017-07-23T20:04:41.990Z,17.10
2017-07-23T20:07:09.851Z,17.10
2017-07-23T20:09:37.403Z,17.10
2017-07-23T20:12:04.939Z,17.10
2017-07-23T20:14:32.517Z,19.20
2017-07-23T20:17:00.078Z,17.00
2017-07-23T20:19:27.888Z,17.00
2017-07-23T20:21:56.201Z,17.10
2017-07-23T20:24:23.790Z,17.10
2017-07-23T20:26:51.351Z,17.10
2017-07-23T20:29:18.924Z,17.10
2017-07-23T20:31:46.753Z,17.20
2017-07-23T20:34:14.293Z,17.20
2017-07-23T20:36:41.919Z,17.20
2017-07-23T20:39:09.777Z,17.20
2017-07-23T20:41:37.299Z,17.10
2017-07-23T20:44:04.820Z,17.00
2017-07-23T20:46:32.362Z,17.00
2017-07-23T20:49:00.688Z,17.00
2017-07-23T20:51:28.536Z,14.70
2017-07-23T20:53:56.154Z,17.00
2017-07-23T20:56:24.509Z,17.00
2017-07-23T20:58:52.424Z,16.90
2017-07-23T21:01:20.029Z,17.00
2017-07-23T21:03:47.648Z,16.90
2017-07-23T21:06:15.275Z,16.90
2017-07-23T21:08:42.929Z,16.90
2017-07-23T21:11:10.845Z,16.90
2017-07-23T21:13:38.460Z,16.90
2017-07-23T21:16:05.990Z,16.80
2017-07-23T21:18:33.578Z,16.80
2017-07-23T21:21:01.126Z,16.80
2017-07-23T21:23:28.721Z,16.80
2017-07-23T21:25:56.378Z,16.80
2017-07-23T21:28:23.931Z,16.80
2017-07-23T21:30:52.798Z,16.80
2017-07-23T21:33:20.400Z,16.80
2017-07-23T21:35:48.982Z,16.70
2017-07-23T21:38:16.590Z,16.70
2017-07-23T21:40:44.199Z,16.70
2017-07-23T21:43:12.233Z,16.70
2017-07-23T21:45:39.963Z,16.70
2017-07-23T21:48:07.626Z,16.70
2017-07-23T21:50:35.225Z,16.70
2017-07-23T21:53:02.811Z,16.60
2017-07-23T21:55:30.663Z,16.70
2017-07-23T21:57:58.262Z,16.60
2017-07-23T22:00:25.822Z,16.60
2017-07-23T22:02:53.399Z,16.60
2017-07-23T22:05:21.115Z,16.50
2017-07-23T22:07:48.945Z,16.50
2017-07-23T22:10:16.606Z,16.30
2017-07-23T22:12:44.200Z,16.30
2017-07-23T22:15:11.765Z,16.20
2017-07-23T22:17:39.363Z,16.00
2017-07-23T22:20:07.199Z,15.90
2017-07-23T22:22:34.715Z,15.90
2017-07-23T22:25:02.246Z,15.80
2017-07-23T22:27:30.056Z,15.70
2017-07-23T22:29:57.603Z,15.70
2017-07-23T22:32:25.144Z,15.70
2017-07-23T22:34:56.873Z,15.70
2017-07-23T22:37:24.433Z,15.60
2017-07-23T22:39:52.740Z,15.60
2017-07-23T22:42:20.329Z,15.60
2017-07-23T22:44:47.878Z,15.60
2017-07-23T22:47:15.696Z,15.60
2017-07-23T22:49:43.215Z,15.60
2017-07-23T22:52:10.766Z,15.60
2017-07-23T22:54:38.365Z,15.60
2017-07-23T22:57:05.953Z,15.60
2017-07-23T22:59:33.803Z,15.60
2017-07-23T23:02:01.373Z,15.60
2017-07-23T23:04:28.927Z,15.60
2017-07-23T23:06:56.465Z,15.50
2017-07-23T23:09:24.004Z,15.40
2017-07-23T23:11:51.843Z,15.30
2017-07-23T23:14:19.399Z,15.30
2017-07-23T23:16:46.925Z,15.30
2017-07-23T23:19:14.469Z,15.30
2017-07-23T23:21:42.769Z,15.30
2017-07-23T23:24:10.573Z,15.30
2017-07-23T23:26:38.086Z,15.30
2017-07-23T23:29:05.630Z,15.40
2017-07-23T23:31:33.174Z,15.40
2017-07-23T23:34:01.471Z,15.30
2017-07-23T23:36:29.226Z,15.30
2017-07-23T23:38:56.803Z,15.20
2017-07-23T23:41:24.329Z,15.20
2017-07-23T23:43:51.876Z,15.10
2017-07-23T23:46:19.405Z,15.10
2017-07-23T23:48:47.379Z,15.10
2017-07-23T23:51:15.038Z,15.10
2017-07-23T23:53:42.547Z,15.00
2017-07-23T23:56:11.347Z,14.90
2017-07-23T23:58:38.881Z,14.90
